»·PEaware :: N323JT KSNA-KLGB

N323JT :: KSNA-KLGB

FLIGHT INFORMATION

Flight Status: Arrived
Operator: Privately registered:
United States
More flights under this callsign
Pilot: Marco B. (23309)
Aircraft: Diamond DA-40
(DA40)
More flights by this aircraft type
Origin: KSNA John Wayne-Orange Co
United States
Destination: KLGB Long Beach
United States
More flights between these airports :: More routes between these airports
Route: +SLI
File this flight plan on PilotEdge
Remarks: Practice IFR approaches
Altitude:
(Current/Filed)
2,000ft
Speed:
(Current/Filed)
130kts
Departed: 04-Apr-20 01:02 PM
Arrived: 04-Apr-20 02:24 PM
Distance/Time
Traveled:
17nm/1:21
Distance/Time
To Go:
Arrived

Flight Plot

Page will automatically refresh every two minutes.


Map Options




Map Legend


Flown Route
Filed Route
Departure Airport
Arrival Airport
Navaid (VOR, NDB)
Fix

Horizontal Profiles

Position Reports

Time Latitude Longitude Heading Altitude Ground
Speed
04-Apr-20 12:50 33.673759 -117.872435 297 59ft 0kts
04-Apr-20 12:51 33.673759 -117.872435 297 59ft 0kts
04-Apr-20 12:52 33.673759 -117.872435 297 59ft 0kts
04-Apr-20 12:53 33.673759 -117.872435 297 59ft 0kts
04-Apr-20 12:54 33.673759 -117.872435 297 59ft 0kts
04-Apr-20 12:55 33.673759 -117.872435 297 59ft 0kts
04-Apr-20 12:56 33.673759 -117.872435 297 59ft 0kts
04-Apr-20 12:57 33.673759 -117.872435 297 59ft 0kts
04-Apr-20 12:58 33.673759 -117.872435 297 59ft 0kts
04-Apr-20 12:59 33.673972 -117.872101 122 59ft 2kts
04-Apr-20 13:00 33.674695 -117.870983 34 59ft 19kts
04-Apr-20 13:01 33.678786 -117.868362 27 59ft 50kts
04-Apr-20 13:02 33.681283 -117.866388 119 59ft 0kts
04-Apr-20 13:03 33.681283 -117.866389 119 59ft 0kts
04-Apr-20 13:04 33.681283 -117.866389 119 59ft 0kts
04-Apr-20 13:05 33.681283 -117.866389 119 59ft 0kts
04-Apr-20 13:06 33.681270 -117.866363 130 59ft 0kts
04-Apr-20 13:07 33.680483 -117.865809 203 59ft 13kts
04-Apr-20 13:08 33.670167 -117.872845 214 584ft 72kts
04-Apr-20 13:09 33.652668 -117.890488 221 1493ft 93kts
04-Apr-20 13:10 33.631963 -117.911138 221 2028ft 121kts
04-Apr-20 13:11 33.603606 -117.938925 221 3025ft 120kts
04-Apr-20 13:12 33.615220 -117.965062 10 3024ft 136kts
04-Apr-20 13:13 33.645229 -117.955847 30 2656ft 125kts
04-Apr-20 13:14 33.668648 -117.950883 341 2179ft 114kts
04-Apr-20 13:15 33.692111 -117.959135 343 2036ft 111kts
04-Apr-20 13:16 33.711270 -117.971761 319 2076ft 98kts
04-Apr-20 13:17 33.727751 -117.989392 314 1593ft 102kts
04-Apr-20 13:18 33.743069 -118.007094 308 1517ft 92kts
04-Apr-20 13:19 33.758256 -118.025120 308 1518ft 90kts
04-Apr-20 13:20 33.773502 -118.043189 309 1517ft 90kts
04-Apr-20 13:21 33.785666 -118.062916 285 1319ft 84kts
04-Apr-20 13:22 33.792562 -118.085202 284 995ft 84kts
04-Apr-20 13:23 33.799378 -118.106125 304 866ft 87kts
04-Apr-20 13:24 33.816063 -118.109597 328 850ft 88kts
04-Apr-20 13:25 33.815112 -118.128941 251 614ft 80kts
04-Apr-20 13:26 33.813821 -118.147352 269 69ft 64kts
04-Apr-20 13:27 33.813853 -118.161320 276 61ft 53kts
04-Apr-20 13:28 33.811018 -118.175228 195 752ft 81kts
04-Apr-20 13:29 33.790740 -118.184495 215 1512ft 103kts
04-Apr-20 13:30 33.765797 -118.191974 193 2729ft 89kts
04-Apr-20 13:31 33.725958 -118.198220 188 3020ft 127kts
04-Apr-20 13:32 33.671129 -118.223409 213 3017ft 126kts
04-Apr-20 13:33 33.613548 -118.263937 213 3015ft 122kts
04-Apr-20 13:34 33.558927 -118.285883 192 3019ft 119kts
04-Apr-20 13:35 33.556277 -118.262409 333 3022ft 117kts
04-Apr-20 13:36 33.640385 -118.302603 336 3017ft 118kts
04-Apr-20 13:37 33.642002 -118.303328 336 3017ft 118kts
04-Apr-20 13:38 33.702430 -118.330107 337 3016ft 117kts
04-Apr-20 13:39 33.715309 -118.355355 217 3017ft 117kts
04-Apr-20 13:40 33.689081 -118.336055 131 3018ft 125kts
04-Apr-20 13:41 33.660126 -118.314187 160 3017ft 124kts
04-Apr-20 13:42 33.627918 -118.299465 162 3017ft 123kts
04-Apr-20 13:43 33.600632 -118.310574 247 3017ft 114kts
04-Apr-20 13:44 33.620070 -118.335585 353 3015ft 118kts
04-Apr-20 13:45 33.645373 -118.311354 55 3018ft 125kts
04-Apr-20 13:46 33.664214 -118.276229 55 3017ft 126kts
04-Apr-20 13:47 33.683353 -118.240725 55 3017ft 127kts
04-Apr-20 13:48 33.703239 -118.203818 56 3020ft 140kts
04-Apr-20 13:49 33.724027 -118.165184 56 3018ft 145kts
04-Apr-20 13:50 33.743179 -118.129591 56 3018ft 146kts
04-Apr-20 13:51 33.761270 -118.095898 57 3018ft 147kts
04-Apr-20 13:52 33.778676 -118.063435 58 3017ft 147kts
04-Apr-20 13:53 33.775216 -118.031898 135 3015ft 136kts
04-Apr-20 13:54 33.758343 -118.009009 136 2289ft 123kts
04-Apr-20 13:55 33.742139 -117.989246 165 1594ft 115kts
04-Apr-20 13:56 33.734246 -118.008247 311 1520ft 112kts
04-Apr-20 13:57 33.755025 -118.030824 314 1518ft 114kts
04-Apr-20 13:58 33.776178 -118.050240 322 1517ft 115kts
04-Apr-20 13:59 33.789025 -118.072591 280 1204ft 91kts
04-Apr-20 14:00 33.796038 -118.096662 285 696ft 89kts
04-Apr-20 14:01 33.802911 -118.117612 291 592ft 85kts
04-Apr-20 14:02 33.810011 -118.138047 258 871ft 99kts
04-Apr-20 14:03 33.793915 -118.150654 206 1840ft 85kts
04-Apr-20 14:04 33.774076 -118.163701 212 2759ft 87kts
04-Apr-20 14:05 33.741732 -118.187305 213 3020ft 127kts
04-Apr-20 14:06 33.691847 -118.223810 213 3017ft 130kts
04-Apr-20 14:07 33.635557 -118.268517 253 3012ft 128kts
04-Apr-20 14:09 33.611279 -118.271250 102 3019ft 141kts
04-Apr-20 14:10 33.603779 -118.224682 101 3017ft 142kts
04-Apr-20 14:11 33.596723 -118.177921 101 3018ft 142kts
04-Apr-20 14:12 33.608527 -118.132324 73 3018ft 144kts
04-Apr-20 14:13 33.619906 -118.086153 75 3018ft 144kts
04-Apr-20 14:14 33.639692 -118.046918 30 3015ft 139kts
04-Apr-20 14:15 33.670532 -118.024470 29 3018ft 132kts
04-Apr-20 14:16 33.698070 -118.009972 338 3012ft 119kts
04-Apr-20 14:17 33.719232 -118.032451 308 2597ft 92kts
04-Apr-20 14:18 33.739514 -118.056897 310 2002ft 119kts
04-Apr-20 14:19 33.759436 -118.080894 308 1525ft 91kts
04-Apr-20 14:20 33.775796 -118.100633 309 1053ft 97kts
04-Apr-20 14:21 33.790419 -118.118285 310 638ft 92kts
04-Apr-20 14:22 33.803127 -118.133578 309 288ft 84kts
04-Apr-20 14:23 33.813341 -118.145953 315 32ft 48kts
04-Apr-20 14:23 33.814930 -118.149695 268 36ft 0kts
04-Apr-20 14:25 33.814930 -118.149729 268 36ft 4kts
04-Apr-20 14:26 33.814938 -118.157690 270 48ft 32kts

Navigation Log

Ident Type
Flight plan parsing failed, navigation log unavailable